Flight Track Log - Related Links

Times and Time Zones

All times are in EDT time to prevent confusion due to time zone crossing. See the AAL1459 flight status page for this flight to view local times or setup timezone preferences in your user account.

Time Position Orientation Groundspeed Altitude Reporting Facility
EDT Latitude Longitude Course Direction KTS MPH feet Rate Location/Type
Tue 06:38:54 PM 42.0000 -87.9500 261° West 180 207 2,800  Level Chicago TRACON
Tue 06:39:54 PM 42.0500 -87.9833 334° Northwest 235 270 4,900 2,359 Climbing Chicago TRACON
Tue 06:41:00 PM 41.9333 -88.3179 270° West  Level FlightAware Approximate
Tue 06:42:00 PM 41.9167 -88.4573 270° West  Level FlightAware Approximate
Tue 06:42:20 PM 42.1144 -88.1744 294° West 265 305 10,900  Level Chicago Center
Tue 06:43:00 PM 41.9013 -88.5980 261° West  Level FlightAware Approximate
Tue 06:43:22 PM 42.0803 -88.2775 246° West 298 343 13,200  Level Chicago Center
Tue 06:44:00 PM 41.8847 -88.7382 261° West  Level FlightAware Approximate
Tue 06:44:24 PM 42.0469 -88.4125 252° West 318 366 17,100  Level Chicago Center
Tue 06:45:26 PM 42.0172 -88.5294 251° West 329 379 19,000 2,129 Climbing Chicago Center
Tue 06:46:28 PM 41.9842 -88.6567 251° West 358 412 21,500 2,274 Climbing Chicago Center
Tue 06:47:30 PM 41.9533 -88.7864 252° West 366 421 23,700 2,032 Climbing Chicago Center
Tue 06:48:32 PM 41.9258 -88.9214 255° West 376 433 25,700 1,920 Climbing Chicago Center
Tue 06:49:35 PM 41.9083 -89.0931 262° West 390 449 27,700 1,839 Climbing Chicago Center
Tue 06:50:36 PM 41.8917 -89.2372 261° West 396 456 29,500 1,854 Climbing Chicago Center
Tue 06:51:38 PM 41.8739 -89.3808 261° West 395 455 31,500 1,645 Climbing Chicago Center
Tue 06:52:40 PM 41.8572 -89.5217 261° West 387 445 32,900 1,210 Climbing Chicago Center
Tue 06:53:42 PM 41.8408 -89.6619 261° West 385 443 34,000 1,161 Climbing Chicago Center
Tue 06:54:44 PM 41.8203 -89.8311 261° West 386 444 35,300 968 Climbing Chicago Center
Tue 06:55:46 PM 41.8064 -89.9522 261° West 382 440 36,000 339 Climbing Chicago Center
Tue 06:56:48 PM 41.7867 -90.1047 260° West 383 441 36,000  Level Chicago Center
Tue 06:57:49 PM 41.7683 -90.2422 260° West 379 436 36,000 195 Level Chicago Center
Tue 06:58:51 PM 41.7506 -90.3833 260° West 384 442 36,400 726 Climbing Chicago Center
Tue 06:59:53 PM 41.7292 -90.5489 260° West 378 435 37,500 774 Climbing Chicago Center
Tue 07:00:55 PM 41.7139 -90.6717 261° West 377 434 38,000 242 Climbing Chicago Center
Tue 07:01:57 PM 41.6950 -90.8114 260° West 382 440 38,000  Level Chicago Center
Tue 07:03:00 PM 41.6728 -90.9794 260° West 384 442 38,000  Level Chicago Center
Tue 07:04:01 PM 41.6539 -91.1208 260° West 387 445 38,000  Level Chicago Center
Tue 07:05:03 PM 41.6344 -91.2625 260° West 389 448 38,000  Level Chicago Center
Tue 07:06:05 PM 41.6153 -91.4036 260° West 388 447 38,000  Level Chicago Center
Tue 07:07:07 PM 41.5953 -91.5431 259° West 385 443 38,000  Level Chicago Center
Tue 07:08:09 PM 41.5761 -91.6836 260° West 385 443 38,000  Level Chicago Center
Tue 07:09:11 PM 41.5519 -91.8503 259° West 384 442 38,000  Level Chicago Center
Tue 07:10:12 PM 41.5331 -91.9911 260° West 387 445 38,000  Level Chicago Center
Tue 07:11:14 PM 41.5125 -92.1300 259° West 384 442 38,000  Level Chicago Center
Tue 07:12:16 PM 41.4919 -92.2703 259° West 386 444 38,000  Level Chicago Center
Tue 07:13:18 PM 41.4703 -92.4133 259° West 385 443 38,000  Level Chicago Center
Tue 07:14:20 PM 41.4494 -92.5533 259° West 388 447 38,000  Level Chicago Center
Tue 07:14:52 PM 41.4375 -92.6400 260° West 388 447 38,000  Level Minneapolis Center
Tue 07:15:54 PM 41.4169 -92.7792 259° West 389 448 38,000  Level Minneapolis Center
Tue 07:16:56 PM 41.3947 -92.9194 258° West 390 449 38,000  Level Minneapolis Center
Tue 07:17:58 PM 41.3692 -93.0875 259° West 390 449 38,000  Level Minneapolis Center
Tue 07:19:00 PM 41.3481 -93.2264 259° West 388 447 38,000  Level Minneapolis Center
Tue 07:20:01 PM 41.3250 -93.3667 258° West 389 448 38,000  Level Minneapolis Center
Tue 07:21:03 PM 41.3033 -93.5047 258° West 389 448 38,000  Level Minneapolis Center
Tue 07:22:05 PM 41.2842 -93.6353 259° West 377 434 38,000  Level Minneapolis Center
Tue 07:23:07 PM 41.2578 -93.8017 258° West 383 441 38,000  Level Minneapolis Center
Tue 07:24:08 PM 41.2356 -93.9394 258° West 385 443 38,000  Level Minneapolis Center
Tue 07:25:10 PM 41.2133 -94.0794 258° West 388 447 38,000  Level Minneapolis Center
Tue 07:26:12 PM 41.1889 -94.2219 257° West 393 452 38,000  Level Minneapolis Center
Tue 07:27:14 PM 41.1669 -94.3578 258° West 390 449 38,000  Level Minneapolis Center
Tue 07:28:15 PM 41.1439 -94.4967 258° West 389 448 38,000  Level Minneapolis Center
Tue 07:29:29 PM 41.1167 -94.6669 258° West 390 449 38,000  Level Minneapolis Center
Tue 07:30:31 PM 41.0867 -94.8353 257° West 391 450 38,000  Level Minneapolis Center
Tue 07:31:33 PM 41.0628 -94.9719 257° West 385 443 38,000  Level Minneapolis Center
Tue 07:32:34 PM 41.0442 -95.0819 257° West 383 441 38,000  Level Minneapolis Center
Tue 07:33:36 PM 41.0164 -95.2450 257° West 379 436 38,000  Level Minneapolis Center
Tue 07:34:38 PM 40.9919 -95.3797 257° West 377 434 38,000  Level Minneapolis Center
Tue 07:35:39 PM 40.9681 -95.5150 257° West 377 434 38,000  Level Minneapolis Center
Tue 07:36:41 PM 40.9442 -95.6494 257° West 375 432 38,000  Level Minneapolis Center
Tue 07:37:55 PM 40.9147 -95.8106 256° West 373 429 38,000  Level Minneapolis Center
Tue 07:38:57 PM 40.8858 -95.9733 257° West 375 432 38,000  Level Minneapolis Center
Tue 07:39:59 PM 40.8617 -96.1075 257° West 375 432 38,000  Level Minneapolis Center
Tue 07:41:00 PM 40.8369 -96.2433 257° West 377 434 38,000  Level Minneapolis Center
Tue 07:42:02 PM 40.8117 -96.3786 256° West 379 436 38,000  Level Minneapolis Center
Tue 07:43:04 PM 40.7864 -96.5147 256° West 380 437 38,000  Level Minneapolis Center
Tue 07:44:05 PM 40.7614 -96.6519 257° West 383 441 38,000  Level Minneapolis Center
Tue 07:45:07 PM 40.7353 -96.7892 256° West 384 442 38,000  Level Minneapolis Center
Tue 07:46:09 PM 40.7097 -96.9247 256° West 383 441 38,000  Level Minneapolis Center
Tue 07:47:10 PM 40.6781 -97.0886 256° West 383 441 38,000  Level Minneapolis Center
Tue 07:48:12 PM 40.6528 -97.2228 256° West 380 437 38,000  Level Minneapolis Center
Tue 07:49:14 PM 40.6264 -97.3550 255° West 380 437 38,000  Level Minneapolis Center
Tue 07:50:15 PM 40.6008 -97.4875 256° West 376 433 38,000  Level Minneapolis Center
Tue 07:51:17 PM 40.5753 -97.6211 256° West 376 433 38,000  Level Minneapolis Center
Tue 07:52:19 PM 40.5489 -97.7542 255° West 375 432 38,000  Level Minneapolis Center
Tue 07:53:32 PM 40.5217 -97.8875 255° West 376 433 38,000  Level Minneapolis Center
Tue 07:54:34 PM 40.5019 -98.0789 262° West 379 436 38,000  Level Minneapolis Center
Tue 07:55:36 PM 40.5089 -98.2206 274° West 385 443 38,000  Level Minneapolis Center
Tue 07:56:37 PM 40.5142 -98.3617 273° West 385 443 38,000  Level Minneapolis Center
Tue 07:57:39 PM 40.5203 -98.5039 273° West 386 444 38,000  Level Minneapolis Center
Tue 07:58:41 PM 40.5247 -98.6447 272° West 385 443 38,000  Level Minneapolis Center
Tue 07:59:42 PM 40.5303 -98.7861 273° West 386 444 38,000  Level Minneapolis Center
Tue 08:00:44 PM 40.5358 -98.9303 273° West 390 449 38,000  Level Minneapolis Center
Tue 08:01:45 PM 40.5414 -99.0753 273° West 393 452 38,000  Level Minneapolis Center
Tue 08:02:32 PM 40.5444 -99.1922 272° West 396 456 38,000  Level Denver Center
Tue 08:03:34 PM 40.5494 -99.3389 273° West 399 459 38,000  Level Denver Center
Tue 08:04:36 PM 40.5544 -99.4853 273° West 400 460 38,000  Level Denver Center
Tue 08:05:37 PM 40.5586 -99.6322 272° West 401 461 38,000  Level Denver Center
Tue 08:06:39 PM 40.5628 -99.8064 272° West 397 457 38,000  Level Denver Center
Tue 08:07:41 PM 40.5672 -99.9450 272° West 399 459 38,000  Level Denver Center
Tue 08:08:43 PM 40.5706 -100.0819 272° West 393 452 38,000  Level Denver Center
Tue 08:09:44 PM 40.5747 -100.2392 272° West 385 443 38,000  Level Denver Center
Tue 08:10:46 PM 40.5775 -100.3719 272° West 380 437 38,000  Level Denver Center
Tue 08:11:48 PM 40.5814 -100.5275 272° West 379 436 38,000  Level Denver Center
Tue 08:12:50 PM 40.5836 -100.6606 271° West 378 435 38,000  Level Denver Center
Tue 08:13:51 PM 40.5864 -100.7897 272° West 367 422 38,000  Level Denver Center
Tue 08:14:53 PM 40.5883 -100.9408 271° West 367 422 38,000  Level Denver Center
Tue 08:15:55 PM 40.5906 -101.0708 271° West 368 423 38,000  Level Denver Center
Tue 08:16:56 PM 40.5925 -101.2211 271° West 368 423 38,000  Level Denver Center
Tue 08:17:58 PM 40.5956 -101.3497 272° West 367 422 38,000  Level Denver Center
Tue 08:19:00 PM 40.5989 -101.4786 272° West 368 423 38,000  Level Denver Center
Tue 08:20:01 PM 40.6019 -101.6297 272° West 368 423 38,000  Level Denver Center
Tue 08:21:03 PM 40.6044 -101.7600 271° West 372 428 38,000  Level Denver Center
Tue 08:22:05 PM 40.6058 -101.9131 271° West 375 432 38,000  Level Denver Center
Tue 08:23:06 PM 40.6039 -102.0436 269° West 376 433 38,000  Level Denver Center
Tue 08:24:08 PM 40.6047 -102.1767 271° West 381 438 38,000  Level Denver Center
Tue 08:25:09 PM 40.6067 -102.3328 271° West 383 441 38,000  Level Denver Center
Tue 08:26:11 PM 40.6069 -102.4656 270° West 380 437 38,000  Level Denver Center
Tue 08:27:13 PM 40.6081 -102.6222 271° West 384 442 38,000  Level Denver Center
Tue 08:28:14 PM 40.6069 -102.7697 269° West 384 442 38,000  Level Denver Center
Tue 08:29:16 PM 40.6072 -102.9119 270° West 387 445 38,000  Level Denver Center
Tue 08:30:17 PM 40.6086 -103.0553 271° West 389 448 38,000  Level Denver Center
Tue 08:31:19 PM 40.6081 -103.2003 270° West 393 452 38,000  Level Denver Center
Tue 08:32:20 PM 40.6075 -103.3456 270° West 395 455 38,000  Level Denver Center
Tue 08:33:21 PM 40.6064 -103.4669 269° West 395 455 38,000  Level Denver Center
Tue 08:34:23 PM 40.6058 -103.6378 270° West 398 458 38,000  Level Denver Center
Tue 08:35:24 PM 40.6050 -103.7825 270° West 392 451 38,000  Level Denver Center
Tue 08:36:26 PM 40.6044 -103.9228 270° West 383 441 38,000  Level Denver Center
Tue 08:37:27 PM 40.6019 -104.0586 269° West 372 428 38,000  Level Denver Center
Tue 08:38:28 PM 40.6017 -104.1992 270° West 379 436 38,000  Level Denver Center
Tue 08:39:30 PM 40.5997 -104.3594 269° West 374 430 38,000  Level Denver Center
Tue 08:40:31 PM 40.5981 -104.4939 269° West 368 423 38,000  Level Denver Center
Tue 08:41:33 PM 40.5961 -104.6278 269° West 365 420 38,000  Level Denver Center
Tue 08:42:34 PM 40.5947 -104.7631 269° West 367 422 38,000  Level Denver Center
Tue 08:43:47 PM 40.5928 -104.9014 269° West 373 429 38,000  Level Denver Center
Tue 08:44:49 PM 40.5886 -105.0614 268° West 372 428 38,000  Level Denver Center
Tue 08:45:50 PM 40.5867 -105.1928 269° West 359 413 38,000  Level Denver Center
Tue 08:46:52 PM 40.5842 -105.3231 269° West 356 410 38,000  Level Denver Center
Tue 08:47:53 PM 40.5814 -105.4564 268° West 360 414 38,000  Level Denver Center
Tue 08:48:55 PM 40.5786 -105.5908 268° West 364 419 38,000  Level Denver Center
Tue 08:49:56 PM 40.5736 -105.7486 268° West 367 422 38,000  Level Denver Center
Tue 08:50:57 PM 40.5711 -105.8847 269° West 368 423 38,000  Level Denver Center
Tue 08:51:59 PM 40.5683 -106.0225 269° West 372 428 38,000  Level Denver Center
Tue 08:53:00 PM 40.5639 -106.1578 268° West 374 430 38,000  Level Denver Center
Tue 08:54:02 PM 40.5611 -106.3061 269° West 373 429 38,000  Level Denver Center
Tue 08:55:03 PM 40.5572 -106.4347 268° West 369 425 38,000  Level Denver Center
Tue 08:56:05 PM 40.5522 -106.5619 267° West 369 425 38,000  Level Denver Center
Tue 08:57:06 PM 40.5483 -106.6956 268° West 367 422 38,000  Level Denver Center
Tue 08:58:08 PM 40.5439 -106.8300 268° West 369 425 38,000  Level Denver Center
Tue 08:59:09 PM 40.5397 -106.9664 268° West 373 429 38,000  Level Denver Center
Tue 09:00:11 PM 40.5353 -107.1297 268° West 374 430 38,000  Level Denver Center
Tue 09:01:12 PM 40.5292 -107.2542 266° West 374 430 38,000  Level Denver Center
Tue 09:02:14 PM 40.5244 -107.4056 268° West 372 428 38,000  Level Denver Center
Tue 09:03:15 PM 40.5189 -107.5339 267° West 370 426 38,000  Level Denver Center
Tue 09:04:16 PM 40.5128 -107.6839 267° West 369 425 38,000  Level Denver Center
Tue 09:05:30 PM 40.5072 -107.8350 267° West 371 427 38,000  Level Denver Center
Tue 09:06:32 PM 40.5011 -107.9875 267° West 375 432 38,000  Level Denver Center
Tue 09:07:33 PM 40.5128 -108.1233 276° West 393 452 38,000  Level Denver Center
Tue 09:08:02 PM 40.5211 -108.2006 278° West 394 453 38,000  Level Salt Lake Center
Tue 09:09:04 PM 40.5353 -108.3369 278° West 393 452 38,000  Level Salt Lake Center
Tue 09:09:36 PM 40.5436 -108.4158 278° West 392 451 38,000  Level Denver Center
Tue 09:10:37 PM 40.5572 -108.5503 278° West 389 448 38,000  Level Denver Center
Tue 09:11:39 PM 40.5731 -108.7078 278° West 389 448 38,000  Level Denver Center
Tue 09:12:40 PM 40.5853 -108.8414 277° West 387 445 38,000  Level Denver Center
Tue 09:13:09 PM 40.5933 -108.9219 278° West 389 448 38,000  Level Salt Lake Center
Tue 09:14:10 PM 40.6069 -109.0603 277° West 395 455 38,000  Level Salt Lake Center
Tue 09:14:43 PM 40.6150 -109.1372 278° West 394 453 38,000  Level Denver Center
Tue 09:15:44 PM 40.6289 -109.2975 277° West 395 455 38,000  Level Denver Center
Tue 09:16:12 PM 40.6336 -109.3447 278° West 397 457 38,000  Level Salt Lake Center
Tue 09:17:14 PM 40.6486 -109.5047 277° West 396 456 38,000  Level Salt Lake Center
Tue 09:18:15 PM 40.6611 -109.6456 277° West 402 463 38,000  Level Salt Lake Center
Tue 09:19:16 PM 40.6764 -109.8086 277° West 403 464 38,000  Level Salt Lake Center
Tue 09:20:17 PM 40.6886 -109.9486 277° West 403 464 38,000  Level Salt Lake Center
Tue 09:21:18 PM 40.7014 -110.0906 277° West 406 467 38,000  Level Salt Lake Center
Tue 09:22:20 PM 40.7153 -110.2511 277° West 408 470 38,000  Level Salt Lake Center
Tue 09:23:21 PM 40.7269 -110.3933 276° West 408 470 38,000  Level Salt Lake Center
Tue 09:24:22 PM 40.7414 -110.5594 277° West 408 470 38,000  Level Salt Lake Center
Tue 09:25:23 PM 40.7514 -110.6911 276° West 404 465 38,000  Level Salt Lake Center
Tue 09:26:24 PM 40.7639 -110.8386 276° West 404 465 38,000  Level Salt Lake Center
Tue 09:27:26 PM 40.7789 -111.0156 276° West 406 467 38,000  Level Salt Lake Center
Tue 09:28:27 PM 40.7906 -111.1625 276° West 404 465 38,000  Level Salt Lake Center
Tue 09:29:28 PM 40.8014 -111.3117 276° West 407 468 38,000  Level Salt Lake Center
Tue 09:30:29 PM 40.8128 -111.4606 276° West 409 471 38,000  Level Salt Lake Center
Tue 09:31:31 PM 40.8239 -111.6067 276° West 398 458 38,000  Level Salt Lake Center
Tue 09:32:32 PM 40.8350 -111.7542 276° West 399 459 38,000  Level Salt Lake Center
Tue 09:33:33 PM 40.8458 -111.9006 276° West 396 456 38,000  Level Salt Lake Center
Tue 09:34:34 PM 40.8450 -112.0486 270° West 407 468 38,000  Level Salt Lake Center
Tue 09:35:35 PM 40.8367 -112.1933 266° West 395 455 38,000  Level Salt Lake Center
Tue 09:36:37 PM 40.8281 -112.3406 266° West 402 463 38,000  Level Salt Lake Center
Tue 09:37:38 PM 40.8181 -112.4881 265° West 404 465 38,000  Level Salt Lake Center
Tue 09:38:39 PM 40.8081 -112.6392 265° West 412 474 38,000  Level Salt Lake Center
Tue 09:39:40 PM 40.7978 -112.7894 265° West 413 475 38,000  Level Salt Lake Center
Tue 09:40:41 PM 40.7872 -112.9392 265° West 410 472 38,000  Level Salt Lake Center
Tue 09:41:42 PM 40.7750 -113.1178 265° West 409 471 38,000  Level Salt Lake Center
Tue 09:42:44 PM 40.7642 -113.2650 264° West 405 466 38,000  Level Salt Lake Center
Tue 09:43:45 PM 40.7536 -113.4119 265° West 403 464 38,000  Level Salt Lake Center
Tue 09:44:46 PM 40.7431 -113.5578 265° West 402 463 38,000  Level Salt Lake Center
Tue 09:45:47 PM 40.7314 -113.7044 264° West 403 464 38,000  Level Salt Lake Center
Tue 09:46:48 PM 40.7231 -113.8511 266° West 402 463 38,000  Level Salt Lake Center
Tue 09:47:50 PM 40.7181 -114.0000 268° West 406 467 38,000  Level Salt Lake Center
Tue 09:48:51 PM 40.7133 -114.1486 268° West 407 468 38,000  Level Salt Lake Center
Tue 09:49:52 PM 40.7056 -114.2981 266° West 409 471 38,000  Level Salt Lake Center
Tue 09:50:53 PM 40.7006 -114.4483 268° West 411 473 38,000  Level Salt Lake Center
Tue 09:51:55 PM 40.6919 -114.6300 266° West 414 476 38,000  Level Salt Lake Center
Tue 09:52:56 PM 40.6814 -114.7831 265° West 418 481 38,000  Level Salt Lake Center
Tue 09:53:57 PM 40.6597 -114.9253 259° West 424 488 38,000  Level Salt Lake Center
Tue 09:54:58 PM 40.6356 -115.0950 259° West 423 487 38,000  Level Salt Lake Center
Tue 09:55:59 PM 40.6125 -115.2403 258° West 423 487 38,000  Level Salt Lake Center
Tue 09:57:01 PM 40.5936 -115.3861 260° West 423 487 38,000  Level Salt Lake Center
Tue 09:58:02 PM 40.5703 -115.5556 260° West 422 486 38,000  Level Salt Lake Center
Tue 09:59:03 PM 40.5494 -115.7014 259° West 423 487 38,000  Level Salt Lake Center
Tue 10:00:04 PM 40.5286 -115.8467 259° West 423 487 38,000  Level Salt Lake Center
Tue 10:01:06 PM 40.5039 -116.0172 259° West 425 489 38,000  Level Salt Lake Center
Tue 10:02:07 PM 40.4836 -116.1633 260° West 425 489 38,000  Level Salt Lake Center
Tue 10:03:08 PM 40.4586 -116.3353 259° West 428 493 38,000  Level Salt Lake Center
Tue 10:04:09 PM 40.4381 -116.4806 260° West 425 489 38,000  Level Salt Lake Center
Tue 10:05:10 PM 40.4158 -116.6272 259° West 425 489 38,000  Level Salt Lake Center
Tue 10:06:12 PM 40.3933 -116.7800 259° West 427 491 38,000  Level Salt Lake Center
Tue 10:07:13 PM 40.3661 -116.9556 259° West 427 491 38,000  Level Salt Lake Center
Tue 10:08:15 PM 40.3436 -117.1017 259° West 426 490 38,000  Level Salt Lake Center
Tue 10:09:16 PM 40.3203 -117.2481 258° West 427 491 38,000  Level Salt Lake Center
Tue 10:10:17 PM 40.2914 -117.4167 257° West 425 489 38,000  Level Salt Lake Center
Tue 10:11:18 PM 40.2339 -117.5497 241° Southwest 436 502 38,000  Level Salt Lake Center
Tue 10:12:20 PM 40.1661 -117.7008 240° Southwest 433 498 38,000 -98 Level Salt Lake Center
Tue 10:13:21 PM 40.1069 -117.8294 239° Southwest 432 497 37,800 -380 Descending Salt Lake Center
Tue 10:13:39 PM 40.0856 -117.8819 242° Southwest 434 499 37,500 -987 Descending Oakland Center
Tue 10:14:40 PM 40.0236 -118.0189 239° Southwest 437 503 36,500 -1,475 Descending Oakland Center
Tue 10:15:41 PM 39.9617 -118.1531 239° Southwest 434 499 34,500 -2,607 Descending Oakland Center
Tue 10:16:42 PM 39.8975 -118.2931 239° Southwest 445 512 31,200 -2,213 Descending Oakland Center
Tue 10:17:43 PM 39.8336 -118.4331 239° Southwest 450 518 30,000 -1,082 Descending Oakland Center
Tue 10:18:44 PM 39.7700 -118.5719 239° Southwest 450 518 29,000 -541 Descending Oakland Center
Tue 10:19:45 PM 39.7058 -118.7086 239° Southwest 448 516 28,900 -1,377 Descending Oakland Center
Tue 10:20:46 PM 39.6428 -118.8433 239° Southwest 443 510 26,200 -2,852 Descending Oakland Center
Tue 10:21:47 PM 39.5822 -118.9733 239° Southwest 429 494 23,100 -2,803 Descending Oakland Center
Tue 10:22:48 PM 39.5242 -119.0956 238° Southwest 407 468 20,500 -2,361 Descending Oakland Center
Tue 10:23:49 PM 39.4572 -119.2375 239° Southwest 389 448 18,300 -1,869 Descending Oakland Center
Tue 10:24:50 PM 39.4011 -119.3558 238° Southwest 387 445 16,700 -1,525 Descending Oakland Center
Tue 10:25:51 PM 39.3481 -119.4681 239° Southwest 369 425 15,200 -1,279 Descending Oakland Center
Tue 10:26:52 PM 39.2994 -119.5694 238° Southwest 340 391 14,100 -1,180 Descending Oakland Center
Tue 10:27:53 PM 39.2406 -119.6375 222° Southwest 304 350 12,800 -1,230 Descending Oakland Center
Tue 10:28:54 PM 39.1736 -119.6831 208° Southwest 300 345 11,600 -1,230 Descending Oakland Center
Tue 10:29:55 PM 39.2056 -119.7536 300° West 271 312 10,300 -1,131 Descending Oakland Center
Tue 10:30:56 PM 39.2619 -119.7711 346° North 234 269 9,300 -984 Descending Oakland Center
Tue 10:31:57 PM 39.3125 -119.7675 North 205 236 8,300 -590 Descending Oakland Center
Tue 10:32:58 PM 39.3586 -119.7653 North 200 230 8,100 -871 Descending Oakland Center
Tue 10:34:01 PM 39.4000 -119.7667 359° North 141 162 6,500 -1,171 Descending Northern Cal TRACON
Tue 10:35:01 PM 39.4333 -119.7667 360° North 138 159 5,700 -800 Descending Northern Cal TRACON

Login

Don't have an account? Register now (free) for customized features, flight alerts, and more!